createdAt,value
2023-02-13T00:00:41.450Z,3.39
2023-02-13T00:03:08.944Z,3.35
2023-02-13T00:05:36.429Z,3.37
2023-02-13T00:08:03.943Z,3.41
2023-02-13T00:10:32.770Z,3.34
2023-02-13T00:13:00.215Z,3.36
2023-02-13T00:15:27.900Z,3.42
2023-02-13T00:17:55.439Z,3.32
2023-02-13T00:20:23.082Z,3.20
2023-02-13T00:22:50.551Z,3.30
2023-02-13T00:25:18.108Z,3.44
2023-02-13T00:27:46.936Z,3.42
2023-02-13T00:30:15.580Z,3.37
2023-02-13T00:32:43.029Z,3.38
2023-02-13T00:35:10.461Z,3.34
2023-02-13T00:37:38.045Z,3.34
2023-02-13T00:40:06.217Z,3.30
2023-02-13T00:42:33.662Z,3.29
2023-02-13T00:45:02.446Z,3.10
2023-02-13T00:47:29.873Z,3.32
2023-02-13T00:49:57.294Z,3.45
2023-02-13T00:52:24.736Z,3.32
2023-02-13T00:54:52.138Z,3.45
2023-02-13T00:57:19.561Z,3.43
2023-02-13T00:59:47.107Z,3.43
2023-02-13T01:02:16.002Z,3.45
2023-02-13T01:04:43.449Z,3.42
2023-02-13T01:07:10.894Z,3.47
2023-02-13T01:09:38.342Z,3.54
2023-02-13T01:12:05.902Z,3.48
2023-02-13T01:14:33.372Z,3.57
2023-02-13T01:17:00.835Z,3.62
2023-02-13T01:19:29.593Z,3.61
2023-02-13T01:21:57.040Z,3.62
2023-02-13T01:24:24.480Z,3.61
2023-02-13T01:26:51.909Z,3.54
2023-02-13T01:29:19.349Z,3.56
2023-02-13T01:31:46.897Z,3.60
2023-02-13T01:34:14.436Z,3.63
2023-02-13T01:36:43.368Z,3.62
2023-02-13T01:39:12.762Z,3.56
2023-02-13T01:41:40.253Z,3.58
2023-02-13T01:44:41.076Z,3.58
2023-02-13T01:47:10.372Z,3.53
2023-02-13T01:49:38.046Z,3.61
2023-02-13T01:52:07.032Z,3.51
2023-02-13T01:54:35.788Z,3.56
2023-02-13T01:57:06.283Z,3.56
2023-02-13T01:59:40.994Z,3.62
2023-02-13T02:02:08.780Z,3.55
2023-02-13T02:04:42.177Z,3.56
2023-02-13T02:07:13.337Z,3.41
2023-02-13T02:09:43.960Z,3.51
2023-02-13T02:12:15.760Z,3.50
2023-02-13T02:14:44.227Z,3.54
2023-02-13T02:17:12.947Z,3.56
2023-02-13T02:19:45.545Z,3.52
2023-02-13T02:22:51.546Z,3.46
2023-02-13T02:25:50.526Z,3.49
2023-02-13T02:28:32.731Z,3.51
2023-02-13T02:31:23.737Z,3.24
2023-02-13T02:34:07.695Z,3.51
2023-02-13T02:36:48.425Z,3.40
2023-02-13T02:39:27.773Z,3.41
2023-02-13T02:42:05.364Z,3.41
2023-02-13T02:44:39.961Z,3.33
2023-02-13T02:47:33.689Z,3.32
2023-02-13T02:50:13.571Z,3.16
2023-02-13T02:52:50.125Z,3.32
2023-02-13T02:55:28.676Z,3.27
2023-02-13T02:58:20.833Z,3.28
2023-02-13T03:01:09.177Z,3.32
2023-02-13T03:03:55.473Z,3.25
2023-02-13T03:06:28.312Z,3.20
2023-02-13T03:09:18.100Z,3.25
2023-02-13T03:12:03.685Z,3.20
2023-02-13T03:14:31.214Z,3.25
2023-02-13T03:17:17.213Z,3.22
2023-02-13T03:20:13.955Z,3.18
2023-02-13T03:22:49.249Z,3.18
2023-02-13T03:25:34.187Z,3.15
2023-02-13T03:28:28.251Z,3.03
2023-02-13T03:31:02.578Z,3.15
2023-02-13T03:33:50.445Z,2.91
2023-02-13T03:36:44.340Z,3.10
2023-02-13T03:39:20.269Z,3.00
2023-02-13T03:41:53.599Z,3.06
2023-02-13T03:44:26.823Z,3.08
2023-02-13T03:46:58.425Z,3.02
2023-02-13T03:49:49.866Z,2.99
2023-02-13T03:52:23.305Z,2.95
2023-02-13T03:55:14.874Z,2.89
2023-02-13T03:58:03.054Z,2.77
2023-02-13T04:00:37.709Z,2.82
2023-02-13T04:03:12.480Z,2.78
2023-02-13T04:05:45.270Z,2.74
2023-02-13T04:08:12.963Z,2.76
2023-02-13T04:10:49.686Z,2.74
2023-02-13T04:13:21.905Z,2.73
2023-02-13T04:15:54.233Z,2.72
2023-02-13T04:18:24.904Z,2.68
2023-02-13T04:20:52.751Z,2.59
2023-02-13T04:23:20.540Z,2.54
2023-02-13T04:25:51.886Z,2.57
2023-02-13T04:28:19.379Z,2.61
2023-02-13T04:30:46.948Z,2.59
2023-02-13T04:33:14.743Z,2.42
2023-02-13T04:35:42.259Z,2.51
2023-02-13T04:38:09.788Z,2.47
2023-02-13T04:40:37.225Z,2.33
2023-02-13T04:43:06.119Z,2.45
2023-02-13T04:45:33.615Z,2.44
2023-02-13T04:48:01.123Z,2.49
2023-02-13T04:50:28.574Z,2.42
2023-02-13T04:52:57.089Z,2.42
2023-02-13T04:55:25.873Z,2.31
2023-02-13T04:57:54.334Z,2.30
2023-02-13T05:00:24.624Z,2.17
2023-02-13T05:02:52.739Z,2.33
2023-02-13T05:05:21.037Z,2.32
2023-02-13T05:07:48.506Z,2.27
2023-02-13T05:10:15.960Z,2.24
2023-02-13T05:12:43.466Z,2.26
2023-02-13T05:15:10.986Z,2.22
2023-02-13T05:17:39.764Z,2.23
2023-02-13T05:20:08.426Z,2.19
2023-02-13T05:22:53.497Z,2.13
2023-02-13T05:25:20.969Z,1.97
2023-02-13T05:27:48.485Z,2.11
2023-02-13T05:30:15.548Z,2.09
2023-02-13T05:32:44.434Z,1.98
2023-02-13T05:35:11.875Z,1.98
2023-02-13T05:37:39.366Z,2.01
2023-02-13T05:40:08.182Z,1.95
2023-02-13T05:42:35.697Z,1.92
2023-02-13T05:45:03.161Z,1.95
2023-02-13T05:47:30.614Z,1.74
2023-02-13T05:49:59.414Z,1.91
2023-02-13T05:52:26.924Z,1.92
2023-02-13T05:54:54.372Z,1.84
2023-02-13T05:57:21.785Z,1.79
2023-02-13T05:59:49.269Z,1.78
2023-02-13T06:02:16.725Z,1.39
2023-02-13T06:04:44.169Z,1.67
2023-02-13T06:07:12.978Z,1.64
2023-02-13T06:09:40.401Z,1.62
2023-02-13T06:12:08.101Z,1.64
2023-02-13T06:14:35.591Z,1.66
2023-02-13T06:17:03.119Z,1.60
2023-02-13T06:19:30.605Z,1.65
2023-02-13T06:21:58.020Z,1.64
2023-02-13T06:24:26.847Z,1.61
2023-02-13T06:26:54.330Z,1.59
2023-02-13T06:29:21.802Z,1.62
2023-02-13T06:31:49.287Z,1.56
2023-02-13T06:34:16.877Z,1.54
2023-02-13T06:36:44.350Z,1.55
2023-02-13T06:39:11.949Z,1.36
2023-02-13T06:41:40.712Z,1.42
2023-02-13T06:44:08.664Z,1.50
2023-02-13T06:46:36.165Z,1.46
2023-02-13T06:49:03.768Z,1.45
2023-02-13T06:51:31.286Z,1.43
2023-02-13T06:53:58.772Z,1.41
2023-02-13T06:56:26.903Z,1.39
2023-02-13T06:58:55.648Z,1.45
2023-02-13T07:01:23.089Z,1.43
2023-02-13T07:03:50.590Z,1.41
2023-02-13T07:06:18.871Z,1.47
2023-02-13T07:08:46.394Z,1.48
2023-02-13T07:11:18.614Z,1.49
2023-02-13T07:13:46.093Z,1.46
2023-02-13T07:16:14.989Z,1.48
2023-02-13T07:18:42.989Z,1.49
2023-02-13T07:21:10.439Z,1.54
2023-02-13T07:23:37.854Z,1.61
2023-02-13T07:26:05.721Z,1.63
2023-02-13T07:28:33.273Z,1.55
2023-02-13T07:31:05.642Z,1.71
2023-02-13T07:33:34.563Z,1.74
2023-02-13T07:36:03.480Z,1.80
2023-02-13T07:38:31.500Z,1.86
2023-02-13T07:40:59.714Z,1.84
2023-02-13T07:43:27.716Z,1.98
2023-02-13T07:45:58.977Z,1.99
2023-02-13T07:48:27.181Z,2.01
2023-02-13T07:50:56.819Z,1.98
2023-02-13T07:53:24.363Z,1.99
2023-02-13T07:55:51.787Z,2.06
2023-02-13T07:58:19.316Z,2.08
2023-02-13T08:00:46.725Z,2.11
2023-02-13T08:03:14.213Z,2.25
2023-02-13T08:05:41.766Z,2.29
2023-02-13T08:08:10.575Z,2.30
2023-02-13T08:10:55.850Z,2.41
2023-02-13T08:13:23.318Z,2.52
2023-02-13T08:15:50.717Z,2.60
2023-02-13T08:18:19.715Z,2.72
2023-02-13T08:20:48.403Z,2.69
2023-02-13T08:23:17.296Z,2.78
2023-02-13T08:25:44.871Z,2.91
2023-02-13T08:28:12.401Z,2.99
2023-02-13T08:30:39.889Z,3.10
2023-02-13T08:33:07.290Z,3.11
2023-02-13T08:35:34.730Z,3.24
2023-02-13T08:38:06.151Z,3.28
2023-02-13T08:40:35.325Z,3.41
2023-02-13T08:43:03.820Z,3.53
2023-02-13T08:45:31.839Z,3.56
2023-02-13T08:48:00.361Z,3.68
2023-02-13T08:50:29.186Z,3.78
2023-02-13T08:52:56.739Z,3.85
2023-02-13T08:55:24.142Z,3.92
2023-02-13T08:57:52.888Z,4.04
2023-02-13T09:00:21.393Z,4.07
2023-02-13T09:02:48.886Z,4.13
2023-02-13T09:05:16.860Z,4.20
2023-02-13T09:07:44.271Z,4.29
2023-02-13T09:10:12.472Z,4.35
2023-02-13T09:12:39.931Z,4.35
2023-02-13T09:15:09.537Z,4.44
2023-02-13T09:17:36.953Z,4.52
2023-02-13T09:20:04.830Z,4.62
2023-02-13T09:22:32.265Z,4.63
2023-02-13T09:25:03.941Z,4.85
2023-02-13T09:27:32.091Z,4.94
2023-02-13T09:29:59.813Z,4.99
2023-02-13T09:32:29.462Z,5.15
2023-02-13T09:34:57.093Z,5.07
2023-02-13T09:37:24.953Z,5.51
2023-02-13T09:39:52.498Z,5.46
2023-02-13T09:42:24.090Z,5.56
2023-02-13T09:44:54.437Z,5.69
2023-02-13T09:47:31.022Z,5.75
2023-02-13T09:50:01.616Z,5.80
2023-02-13T09:52:32.992Z,5.97
2023-02-13T09:55:01.698Z,6.03
2023-02-13T09:57:34.652Z,6.16
2023-02-13T10:00:13.061Z,6.27
2023-02-13T10:02:50.848Z,6.30
2023-02-13T10:05:38.383Z,6.32
2023-02-13T10:08:13.479Z,6.43
2023-02-13T10:10:52.310Z,6.49
2023-02-13T10:13:42.676Z,6.57
2023-02-13T10:16:13.506Z,6.66
2023-02-13T10:18:49.318Z,6.71
2023-02-13T10:21:22.289Z,6.82
2023-02-13T10:23:55.045Z,6.83
2023-02-13T10:26:42.322Z,6.98
2023-02-13T10:29:34.342Z,7.07
2023-02-13T10:32:08.182Z,7.16
2023-02-13T10:34:43.220Z,7.24
2023-02-13T10:37:15.422Z,7.37
2023-02-13T10:39:45.433Z,7.45
2023-02-13T10:42:23.099Z,7.54
2023-02-13T10:45:03.236Z,7.56
2023-02-13T10:47:45.867Z,7.77
2023-02-13T10:50:23.765Z,7.84
2023-02-13T10:53:03.620Z,7.86
2023-02-13T10:55:52.001Z,7.97
2023-02-13T10:58:21.738Z,8.08
2023-02-13T11:00:56.171Z,8.20
2023-02-13T11:03:26.094Z,8.19
2023-02-13T11:05:56.961Z,8.43
2023-02-13T11:08:26.784Z,8.47
2023-02-13T11:10:54.235Z,8.55
2023-02-13T11:13:24.385Z,8.63
2023-02-13T11:16:01.861Z,8.64
2023-02-13T11:18:33.998Z,8.70
2023-02-13T11:21:08.826Z,8.84
2023-02-13T11:23:41.484Z,8.85
2023-02-13T11:26:12.472Z,9.03
2023-02-13T11:28:48.644Z,9.15
2023-02-13T11:31:25.008Z,9.11
2023-02-13T11:33:53.046Z,9.10
2023-02-13T11:36:28.578Z,9.24
2023-02-13T11:39:01.174Z,9.38
2023-02-13T11:41:29.872Z,9.42
2023-02-13T11:44:02.097Z,9.59
2023-02-13T11:46:30.996Z,9.66
2023-02-13T11:49:02.158Z,9.63
2023-02-13T11:51:40.234Z,9.58
2023-02-13T11:54:20.484Z,9.78
2023-02-13T11:57:04.126Z,9.84
2023-02-13T11:59:39.603Z,9.86
2023-02-13T12:02:16.898Z,9.93
2023-02-13T12:04:44.948Z,9.93
2023-02-13T12:07:19.929Z,10.12
2023-02-13T12:09:49.902Z,10.16
2023-02-13T12:12:23.693Z,10.13
2023-02-13T12:14:51.510Z,10.09
2023-02-13T12:17:31.154Z,10.18
2023-02-13T12:19:59.236Z,10.28
2023-02-13T12:22:45.140Z,10.29
2023-02-13T12:25:26.659Z,10.31
2023-02-13T12:28:07.676Z,10.38
2023-02-13T12:30:49.547Z,10.43
2023-02-13T12:33:34.049Z,10.41
2023-02-13T12:36:10.791Z,10.38
2023-02-13T12:38:50.844Z,10.48
2023-02-13T12:41:23.745Z,10.45
2023-02-13T12:44:09.843Z,10.62
2023-02-13T12:46:47.143Z,10.66
2023-02-13T12:49:29.925Z,10.69
2023-02-13T12:52:12.388Z,10.76
2023-02-13T12:54:52.257Z,10.72
2023-02-13T12:57:32.929Z,10.75
2023-02-13T13:00:18.357Z,10.77
2023-02-13T13:02:59.663Z,10.88
2023-02-13T13:05:36.837Z,10.94
2023-02-13T13:08:25.374Z,10.88
2023-02-13T13:11:09.717Z,10.90
2023-02-13T13:13:50.630Z,10.89
2023-02-13T13:16:26.503Z,10.96
2023-02-13T13:19:03.336Z,10.96
2023-02-13T13:21:39.021Z,10.85
2023-02-13T13:24:14.572Z,10.96
2023-02-13T13:26:47.146Z,11.21
2023-02-13T13:29:20.917Z,11.13
2023-02-13T13:31:54.171Z,11.25
2023-02-13T13:34:24.393Z,11.22
2023-02-13T13:36:57.624Z,11.25
2023-02-13T13:39:42.251Z,11.27
2023-02-13T13:42:16.902Z,11.26
2023-02-13T13:44:56.930Z,11.28
2023-02-13T13:47:37.376Z,11.38
2023-02-13T13:50:06.922Z,11.34
2023-02-13T13:52:37.336Z,11.44
2023-02-13T13:55:05.640Z,11.64
2023-02-13T13:58:00.644Z,11.77
2023-02-13T14:00:30.683Z,11.64
2023-02-13T14:03:21.356Z,11.64
2023-02-13T14:06:05.017Z,11.67
2023-02-13T14:09:08.404Z,11.68
2023-02-13T14:11:41.912Z,11.64
2023-02-13T14:14:52.369Z,11.72
2023-02-13T14:18:01.130Z,11.81
2023-02-13T14:20:39.479Z,11.85
2023-02-13T14:23:14.049Z,11.89
2023-02-13T14:25:41.950Z,12.02
2023-02-13T14:28:22.530Z,12.12
2023-02-13T14:30:53.978Z,12.07
2023-02-13T14:33:28.588Z,12.03
2023-02-13T14:36:08.209Z,12.09
2023-02-13T14:38:37.262Z,12.25
2023-02-13T14:41:07.162Z,12.43
2023-02-13T14:43:37.941Z,12.69
2023-02-13T14:46:15.886Z,13.22
2023-02-13T14:48:49.628Z,13.68
2023-02-13T14:51:28.512Z,13.84
2023-02-13T14:54:01.041Z,14.12
2023-02-13T14:56:30.440Z,14.40
2023-02-13T14:59:06.774Z,14.58
2023-02-13T15:01:36.850Z,14.21
2023-02-13T15:04:11.400Z,14.64
2023-02-13T15:06:43.202Z,14.91
2023-02-13T15:09:25.008Z,14.37
2023-02-13T15:11:52.457Z,14.48
2023-02-13T15:14:26.588Z,15.09
2023-02-13T15:16:58.456Z,15.10
2023-02-13T15:19:28.187Z,15.26
2023-02-13T15:21:59.916Z,15.33
2023-02-13T15:24:30.101Z,15.43
2023-02-13T15:27:02.753Z,15.40
2023-02-13T15:29:44.330Z,15.27
2023-02-13T15:32:20.747Z,15.20
2023-02-13T15:34:49.385Z,14.97
2023-02-13T15:37:23.999Z,14.55
2023-02-13T15:39:51.522Z,13.92
2023-02-13T15:42:19.296Z,14.57
2023-02-13T15:44:49.774Z,14.75
2023-02-13T15:47:20.662Z,15.06
2023-02-13T15:49:50.261Z,15.34
2023-02-13T15:52:25.667Z,15.30
2023-02-13T15:54:55.067Z,14.88
2023-02-13T15:57:24.110Z,14.26
2023-02-13T15:59:52.730Z,13.98
2023-02-13T16:02:22.385Z,13.67
2023-02-13T16:04:52.498Z,12.71
2023-02-13T16:07:20.437Z,12.28
2023-02-13T16:09:49.264Z,11.87
2023-02-13T16:12:22.309Z,11.28
2023-02-13T16:14:54.217Z,11.13
2023-02-13T16:17:28.954Z,10.99
2023-02-13T16:20:00.404Z,10.84
2023-02-13T16:22:34.951Z,10.55
2023-02-13T16:25:19.169Z,10.39
2023-02-13T16:27:48.249Z,10.21
2023-02-13T16:30:26.275Z,10.05
2023-02-13T16:33:13.533Z,9.81
2023-02-13T16:35:43.833Z,9.68
2023-02-13T16:38:30.600Z,9.56
2023-02-13T16:41:00.838Z,9.41
2023-02-13T16:43:46.556Z,9.24
2023-02-13T16:46:20.227Z,9.09
2023-02-13T16:48:58.518Z,9.12
2023-02-13T16:51:33.890Z,8.99
2023-02-13T16:54:03.665Z,8.84
2023-02-13T16:56:40.501Z,8.79
2023-02-13T16:59:22.603Z,8.65
2023-02-13T17:01:50.384Z,8.55
2023-02-13T17:04:23.241Z,8.43
2023-02-13T17:06:55.640Z,8.28
2023-02-13T17:09:23.574Z,8.04
2023-02-13T17:11:53.708Z,8.11
2023-02-13T17:14:21.471Z,7.79
2023-02-13T17:16:49.668Z,7.47
2023-02-13T17:19:17.101Z,7.38
2023-02-13T17:21:44.551Z,7.34
2023-02-13T17:24:17.775Z,7.19
2023-02-13T17:26:45.183Z,7.09
2023-02-13T17:29:13.928Z,6.91
2023-02-13T17:31:41.445Z,6.64
2023-02-13T17:34:11.519Z,6.62
2023-02-13T17:36:38.962Z,6.44
2023-02-13T17:39:06.375Z,6.30
2023-02-13T17:41:33.799Z,6.24
2023-02-13T17:44:01.215Z,6.23
2023-02-13T17:46:30.014Z,6.21
2023-02-13T17:48:57.434Z,6.24
2023-02-13T17:51:24.890Z,6.14
2023-02-13T17:53:52.388Z,6.17
2023-02-13T17:56:19.777Z,6.16
2023-02-13T17:58:47.242Z,6.18
2023-02-13T18:01:14.708Z,6.14
2023-02-13T18:03:43.471Z,6.04
2023-02-13T18:06:12.524Z,5.90
2023-02-13T18:08:39.950Z,5.82
2023-02-13T18:11:10.991Z,5.74
2023-02-13T18:13:40.664Z,5.66
2023-02-13T18:16:09.692Z,5.64
2023-02-13T18:18:37.142Z,5.52
2023-02-13T18:21:06.148Z,5.46
2023-02-13T18:23:33.662Z,5.42
2023-02-13T18:26:06.538Z,5.34
2023-02-13T18:28:34.178Z,5.06
2023-02-13T18:31:02.772Z,5.21
2023-02-13T18:33:30.722Z,5.13
2023-02-13T18:36:02.327Z,5.29
2023-02-13T18:38:32.372Z,5.14
2023-02-13T18:41:00.264Z,5.10
2023-02-13T18:43:28.211Z,5.02
2023-02-13T18:45:56.619Z,4.75
2023-02-13T18:48:24.186Z,4.96
2023-02-13T18:50:51.780Z,4.88
2023-02-13T18:53:19.270Z,4.84
2023-02-13T18:55:48.262Z,4.80
2023-02-13T18:58:15.767Z,4.80
2023-02-13T19:00:43.294Z,4.70
2023-02-13T19:03:10.825Z,4.69
2023-02-13T19:05:41.639Z,4.54
2023-02-13T19:08:09.355Z,4.57
2023-02-13T19:10:36.993Z,4.52
2023-02-13T19:13:05.926Z,4.48
2023-02-13T19:15:33.511Z,4.25
2023-02-13T19:18:01.177Z,3.82
2023-02-13T19:20:28.723Z,4.24
2023-02-13T19:22:56.351Z,4.15
2023-02-13T19:25:23.898Z,4.04
2023-02-13T19:27:51.405Z,3.96
2023-02-13T19:30:20.784Z,3.91
2023-02-13T19:32:48.381Z,3.66
2023-02-13T19:35:16.055Z,3.76
2023-02-13T19:37:44.618Z,3.51
2023-02-13T19:40:13.497Z,3.68
2023-02-13T19:42:40.971Z,3.40
2023-02-13T19:45:09.474Z,3.32
2023-02-13T19:47:38.449Z,3.61
2023-02-13T19:50:07.614Z,3.59
2023-02-13T19:52:35.195Z,3.44
2023-02-13T19:55:02.815Z,3.45
2023-02-13T19:57:30.489Z,3.22
2023-02-13T20:00:01.750Z,3.16
2023-02-13T20:02:29.373Z,2.80
2023-02-13T20:04:58.478Z,2.63
2023-02-13T20:07:25.965Z,2.78
2023-02-13T20:09:53.476Z,2.71
2023-02-13T20:12:21.028Z,2.91
2023-02-13T20:14:48.578Z,2.95
2023-02-13T20:17:16.212Z,2.86
2023-02-13T20:19:43.870Z,2.88
2023-02-13T20:22:16.413Z,3.01
2023-02-13T20:24:44.119Z,2.88
2023-02-13T20:27:12.046Z,2.74
2023-02-13T20:29:39.801Z,3.11
2023-02-13T20:32:07.827Z,3.00
2023-02-13T20:34:44.342Z,2.99
2023-02-13T20:37:21.643Z,2.99
2023-02-13T20:39:49.491Z,2.96
2023-02-13T20:42:25.782Z,2.63
2023-02-13T20:44:53.508Z,2.76
2023-02-13T20:47:21.187Z,2.47
2023-02-13T20:49:49.127Z,2.75
2023-02-13T20:52:16.849Z,2.74
2023-02-13T20:54:47.099Z,2.55
2023-02-13T20:57:16.095Z,2.69
2023-02-13T20:59:45.643Z,2.50
2023-02-13T21:02:13.818Z,2.62
2023-02-13T21:04:41.582Z,2.55
2023-02-13T21:07:10.085Z,2.54
2023-02-13T21:09:38.197Z,2.73
2023-02-13T21:12:07.449Z,2.66
2023-02-13T21:14:35.263Z,2.16
2023-02-13T21:17:04.223Z,2.62
2023-02-13T21:19:32.248Z,2.69
2023-02-13T21:22:11.056Z,2.60
2023-02-13T21:24:40.012Z,2.72
2023-02-13T21:27:12.876Z,2.70
2023-02-13T21:29:40.559Z,2.61
2023-02-13T21:32:08.533Z,2.51
2023-02-13T21:34:36.189Z,2.73
2023-02-13T21:37:03.718Z,2.80
2023-02-13T21:39:31.228Z,2.79
2023-02-13T21:41:58.682Z,2.63
2023-02-13T21:44:27.710Z,2.90
2023-02-13T21:46:55.167Z,2.89
2023-02-13T21:49:24.905Z,2.89
2023-02-13T21:51:52.455Z,2.88
2023-02-13T21:54:19.876Z,2.88
2023-02-13T21:56:47.418Z,2.90
2023-02-13T21:59:16.643Z,2.86
2023-02-13T22:01:46.686Z,2.90
2023-02-13T22:04:14.245Z,2.83
2023-02-13T22:06:41.909Z,2.77
2023-02-13T22:09:12.004Z,2.87
2023-02-13T22:11:39.673Z,2.91
2023-02-13T22:14:09.221Z,2.94
2023-02-13T22:16:38.978Z,2.84
2023-02-13T22:19:08.356Z,2.98
2023-02-13T22:21:36.977Z,2.95
2023-02-13T22:24:04.898Z,2.88
2023-02-13T22:26:34.878Z,2.89
2023-02-13T22:29:04.033Z,2.81
2023-02-13T22:31:31.640Z,2.68
2023-02-13T22:34:03.947Z,2.66
2023-02-13T22:36:34.366Z,2.59
2023-02-13T22:39:01.799Z,2.54
2023-02-13T22:41:29.551Z,2.36
2023-02-13T22:43:58.115Z,2.32
2023-02-13T22:46:27.724Z,2.42
2023-02-13T22:48:55.256Z,2.38
2023-02-13T22:51:25.420Z,2.41
2023-02-13T22:53:55.248Z,2.31
2023-02-13T22:56:23.410Z,2.41
2023-02-13T22:58:50.852Z,2.32
2023-02-13T23:01:20.291Z,2.26
2023-02-13T23:03:48.041Z,2.21
2023-02-13T23:06:16.509Z,2.16
2023-02-13T23:08:44.501Z,2.08
2023-02-13T23:11:34.025Z,2.02
2023-02-13T23:14:01.748Z,1.74
2023-02-13T23:16:50.514Z,1.84
2023-02-13T23:19:17.010Z,1.62
2023-02-13T23:21:44.566Z,1.67
2023-02-13T23:24:12.124Z,1.53
2023-02-13T23:26:40.922Z,1.47
2023-02-13T23:29:08.375Z,1.41
2023-02-13T23:31:36.143Z,1.36
2023-02-13T23:34:03.625Z,1.27
2023-02-13T23:36:31.090Z,1.27
2023-02-13T23:38:58.518Z,1.25
2023-02-13T23:41:26.002Z,0.96
2023-02-13T23:43:54.887Z,1.17
2023-02-13T23:46:22.384Z,1.13
2023-02-13T23:48:49.900Z,1.11
2023-02-13T23:51:18.243Z,1.23
2023-02-13T23:53:45.740Z,1.25
2023-02-13T23:56:13.214Z,1.41
2023-02-13T23:58:40.827Z,1.51
